CCP2 weather

Exploits Valley Botwood Airport
Exploits Valley, Newfoundland and Labrador, Canada

Public forecast

Using degrees Celsius for public forecast. Weather courtesy of forecast.io.

METAR (pilot weather report)

Closest report is Gander International Airport, 35.4 nm (65.5 km) ESE. Retrieved 2019/07/16 15:32 UTC (17 minutes ago):

CYQX 161532Z 32008KT 12SM -DZ BKN003 BKN009 OVC017 18/17 A2979 RMK SF5SF2SC1 SLP091 DENSITY ALT 1100FT

TAF (pilot weather forecast)

Closest forecast is Gander International Airport, 35.4 nm (65.5 km) ESE. Retrieved 2019/07/16 12:42 UTC (3 hours ago):

TAF CYQX 161141Z 1612/1712 VRB03KT 3/4SM -DZ BR OVC002 TEMPO 1612/1614 3SM BR OVC005 FM161400 32006KT 4SM -DZ BR BKN004 OVC012 TEMPO 1614/1616 6SM BR FEW004 OVC012 FM161600 32010KT 5SM -SHRA BR BKN015 OVC025 TEMPO 1616/1618 P6SM NSW BKN030 FM161800 35010KT P6SM BKN030 PROB30 1619/1623 2SM TSRA BR OVC030CB FM162300 01008KT 6SM BR BKN020 FM170300 32008KT 2SM -DZ BR OVC003 FM171100 VRB03KT P6SM FEW005 BKN020 RMK NXT FCST BY 161800Z